Senyomaru — JI3557 — position and weather

sailwx.info

Track history (hours):
 
Tides and Currents Weather Stations Pressure Air Temp Water Temp Dewpoint Dewpoint Depression Visibility Wind Speed Wind Dir Waves Ship Positions

Senyomaru

Last reported at 2018-Feb-23 11:28 UTC. Time now 2018-Feb-23 12:43 UTC.
Position N 34°01' E 131°41'.

Length 69 m; draft 4 m.

Type: Tanker. MMSI: 431300188.

Date/timePositionNaut miles runAvg speedWind from/ knotsBaromVisibWave heightAir tempDewpointWater temp
2018-Feb-23 11:28N 34°01' E 131°41'0 0.0
2018-Feb-23 10:58N 34°01' E 131°41'0 0.0
2018-Feb-23 10:28N 34°02' E 131°41'0 0.0
2018-Feb-23 09:58N 34°01' E 131°41'0 0.0
2018-Feb-23 06:52N 34°02' E 131°41'2 6.3
2018-Feb-23 06:30N 34°00' E 131°39'712.5
2018-Feb-23 05:58N 33°57' E 131°32'612.5
2018-Feb-23 05:30N 33°55' E 131°25'612.4
2018-Feb-23 05:00N 33°52' E 131°19'510.1
2018-Feb-23 04:31N 33°54' E 131°13'4 6.0
2018-Feb-23 03:54N 33°57' E 131°15'0 0.0
2018-Feb-23 03:30N 33°57' E 131°15'0 0.0
2018-Feb-23 02:51N 33°57' E 131°15'0 0.0
2018-Feb-23 02:30N 33°57' E 131°15'0 0.0
2018-Feb-23 00:35N 33°57' E 131°15'0 0.0
2018-Feb-23 00:17N 33°57' E 131°15'0 0.0
2018-Feb-23 00:00N 33°57' E 131°15'0 0.0
2018-Feb-22 23:30N 33°57' E 131°15'0 0.0
2018-Feb-22 22:59N 33°57' E 131°15'1 2.0
2018-Feb-22 22:29N 33°56' E 131°14'3 6.6
2018-Feb-22 22:00N 33°54' E 131°11'4 8.0
2018-Feb-22 21:31N 33°57' E 131°09'1 2.3
2018-Feb-22 21:01N 33°58' E 131°10'0 0.0
2018-Feb-22 20:28N 33°58' E 131°10'0 0.0
2018-Feb-22 19:58N 33°58' E 131°10'0 0.0
2018-Feb-22 19:25N 33°58' E 131°10'0 0.0
2018-Feb-22 18:55N 33°58' E 131°10'0 0.0
2018-Feb-22 18:28N 33°58' E 131°10'0 0.0
2018-Feb-22 17:58N 33°58' E 131°10'0 0.0
2018-Feb-22 17:28N 33°58' E 131°10'0 0.0
2018-Feb-22 16:58N 33°58' E 131°10'0 0.0
2018-Feb-22 16:28N 33°58' E 131°10'0 0.0
2018-Feb-22 15:58N 33°58' E 131°10'0 0.0
2018-Feb-22 15:28N 33°58' E 131°10'0 0.0
2018-Feb-22 14:58N 33°58' E 131°10'0 0.0
2018-Feb-22 14:25N 33°58' E 131°10'0 0.0
2018-Feb-22 13:58N 33°58' E 131°10'0 0.0
2018-Feb-22 13:28N 33°58' E 131°10'0 0.0
2018-Feb-22 12:58N 33°58' E 131°10'0 0.0
2018-Feb-22 12:28N 33°58' E 131°10'0 0.0
2018-Feb-22 11:58N 33°58' E 131°10'0 0.0
2018-Feb-22 11:28N 33°58' E 131°10'0 0.0
2018-Feb-22 10:55N 33°58' E 131°10'0 0.0
2018-Feb-22 10:28N 33°58' E 131°10'0 0.0
2018-Feb-22 09:58N 33°58' E 131°10'0 0.0
2018-Feb-22 09:28N 33°58' E 131°10'0 0.0
2018-Feb-22 08:58N 33°58' E 131°10'0 0.0
2018-Feb-22 08:25N 33°58' E 131°10'0 0.0
2018-Feb-22 07:58N 33°58' E 131°10'0 0.0
2018-Feb-22 07:28N 33°58' E 131°10'0 0.0
2018-Feb-22 06:58N 33°58' E 131°10'0 0.0
2018-Feb-22 06:28N 33°58' E 131°10'0 0.0
2018-Feb-22 05:58N 33°58' E 131°10'0 0.0
2018-Feb-22 05:28N 33°58' E 131°10'0 0.0
2018-Feb-22 04:58N 33°58' E 131°10'0 0.0
2018-Feb-22 04:28N 33°58' E 131°10'0 0.0
2018-Feb-22 03:55N 33°58' E 131°10'0 0.0
2018-Feb-22 03:28N 33°58' E 131°10'0 0.0
2018-Feb-22 02:58N 33°58' E 131°10'0 0.0
2018-Feb-22 02:28N 33°58' E 131°10'0 0.0
2018-Feb-22 01:58N 33°58' E 131°10'0 0.0
2018-Feb-22 01:28N 33°58' E 131°10'0 0.0
2018-Feb-22 00:58N 33°58' E 131°10'0 0.0
2018-Feb-22 00:28N 33°58' E 131°10'0 0.0
2018-Feb-21 23:58N 33°58' E 131°10'0 0.0
2018-Feb-21 23:28N 33°58' E 131°10'0 0.0
2018-Feb-21 22:58N 33°58' E 131°10'1 2.2
2018-Feb-21 22:30N 33°58' E 131°09'2 4.5
2018-Feb-21 21:58N 33°56' E 131°07'0 0.0
2018-Feb-21 21:28N 33°56' E 131°07'0 0.0
2018-Feb-21 20:58N 33°56' E 131°07'0 0.0
2018-Feb-21 20:28N 33°56' E 131°07'0 0.0
2018-Feb-21 19:58N 33°56' E 131°07'0 0.0
2018-Feb-21 19:28N 33°56' E 131°07'0 0.0
2018-Feb-21 18:58N 33°56' E 131°07'0 0.0
2018-Feb-21 18:28N 33°56' E 131°07'0 0.1
2018-Feb-21 17:58N 33°56' E 131°07'0 0.0
2018-Feb-21 17:28N 33°56' E 131°07'0 0.1
2018-Feb-21 16:58N 33°56' E 131°07'0 0.0
2018-Feb-21 16:28N 33°56' E 131°07'0 0.0
2018-Feb-21 15:58N 33°56' E 131°07'0 0.0
2018-Feb-21 15:28N 33°56' E 131°07'0 0.0
2018-Feb-21 14:58N 33°56' E 131°07'0 0.0
2018-Feb-21 14:28N 33°56' E 131°07'0 0.1
2018-Feb-21 13:58N 33°56' E 131°07'0 0.0
2018-Feb-21 13:28N 33°56' E 131°07'0 0.1
2018-Feb-21 12:58N 33°56' E 131°07'0 0.0
2018-Feb-21 12:28N 33°56' E 131°07'0 0.0
2018-Feb-21 11:58N 33°56' E 131°07'2 3.9
2018-Feb-21 11:30N 33°55' E 131°09'612.9
2018-Feb-21 11:00N 33°51' E 131°15'611.8
2018-Feb-21 10:30N 33°49' E 131°21'611.7
2018-Feb-21 10:00N 33°46' E 131°27'612.2
2018-Feb-21 09:30N 33°43' E 131°34'611.9
2018-Feb-21 09:00N 33°41' E 131°41'611.6
2018-Feb-21 08:30N 33°37' E 131°45'1111.3
2018-Feb-21 07:34N 33°28' E 131°52'211.1
2018-Feb-21 07:24N 33°26' E 131°53'7 0.3
2018-Feb-20 09:10N 33°20' E 131°58'212.2
2018-Feb-20 09:00N 33°22' E 131°57'612.7
2018-Feb-20 08:30N 33°27' E 131°53'713.2
2018-Feb-20 08:00N 33°33' E 131°49'713.0
2018-Feb-20 07:30N 33°38' E 131°44'713.2
2018-Feb-20 07:00N 33°42' E 131°38'612.9
2018-Feb-20 06:30N 33°45' E 131°31'612.8
2018-Feb-20 06:00N 33°48' E 131°24'612.6
2018-Feb-20 05:30N 33°51' E 131°17'510.0
2018-Feb-20 05:01N 33°54' E 131°13'3 5.5
2018-Feb-20 04:28N 33°57' E 131°15'0 0.0
2018-Feb-20 03:50N 33°57' E 131°15'0 0.0
2018-Feb-20 01:50N 33°57' E 131°15'0 0.0
2018-Feb-20 01:29N 33°57' E 131°15'0 0.0
2018-Feb-20 00:59N 33°57' E 131°15'0 0.0
2018-Feb-20 00:26N 33°57' E 131°15'0 0.0
2018-Feb-19 23:50N 33°57' E 131°15'0 0.0
2018-Feb-19 23:29N 33°57' E 131°15'0 0.0
2018-Feb-19 23:00N 33°57' E 131°15'2 4.1
2018-Feb-19 22:30N 33°55' E 131°13'2 4.1
2018-Feb-19 21:59N 33°55' E 131°11'0 0.0
2018-Feb-19 21:20N 33°55' E 131°11'0 0.2
2018-Feb-19 20:59N 33°55' E 131°11'0 0.0
2018-Feb-19 20:29N 33°55' E 131°11'0 0.1
2018-Feb-19 19:59N 33°55' E 131°11'0 0.0
2018-Feb-19 19:29N 33°55' E 131°11'0 0.0
2018-Feb-19 18:59N 33°55' E 131°11'0 0.0
2018-Feb-19 18:29N 33°55' E 131°11'0 0.0
2018-Feb-19 17:59N 33°55' E 131°11'0 0.0
2018-Feb-19 17:29N 33°55' E 131°11'0 0.0
2018-Feb-19 16:56N 33°55' E 131°11'0 0.0
2018-Feb-19 16:29N 33°55' E 131°11'0 0.0
2018-Feb-19 15:59N 33°55' E 131°11'0 0.0
2018-Feb-19 15:29N 33°55' E 131°11'0 0.0
2018-Feb-19 14:59N 33°55' E 131°11'0 0.1
2018-Feb-19 14:29N 33°55' E 131°11'0 0.0
2018-Feb-19 13:59N 33°55' E 131°11'0 0.1
2018-Feb-19 13:29N 33°55' E 131°11'0 0.0
2018-Feb-19 12:59N 33°55' E 131°11'0 0.1
2018-Feb-19 12:29N 33°55' E 131°11'0 0.0
2018-Feb-19 11:59N 33°55' E 131°11'0 0.0
2018-Feb-19 11:29N 33°55' E 131°11'0 0.0
2018-Feb-19 10:59N 33°55' E 131°11'0 0.0
2018-Feb-19 10:29N 33°55' E 131°11'0 0.1
2018-Feb-19 09:59N 33°55' E 131°11'0 0.0
2018-Feb-19 09:29N 33°55' E 131°11'0 0.0
2018-Feb-19 08:59N 33°55' E 131°11'0 0.2
2018-Feb-19 08:23N 33°55' E 131°11'0 0.0
2018-Feb-19 07:59N 33°55' E 131°11'0 0.0
2018-Feb-19 07:29N 33°55' E 131°11'0 0.0
2018-Feb-19 06:59N 33°55' E 131°11'0 0.0
2018-Feb-19 06:29N 33°55' E 131°11'0 0.0
2018-Feb-19 05:56N 33°55' E 131°11'0 0.0
2018-Feb-19 05:29N 33°55' E 131°11'0 0.0
2018-Feb-19 04:59N 33°55' E 131°11'0 0.0
2018-Feb-19 04:29N 33°55' E 131°11'0 0.0
2018-Feb-19 03:59N 33°55' E 131°11'0 0.1
2018-Feb-19 03:29N 33°55' E 131°11'0 0.0
2018-Feb-19 02:59N 33°55' E 131°11'0 0.0
2018-Feb-19 02:29N 33°55' E 131°11'0 0.0
2018-Feb-19 01:59N 33°55' E 131°11'0 0.0
2018-Feb-19 01:29N 33°55' E 131°11'0 0.0
2018-Feb-19 00:59N 33°55' E 131°11'0 0.0
2018-Feb-19 00:29N 33°55' E 131°11'0 0.0
2018-Feb-18 23:59N 33°55' E 131°11'0 0.1
2018-Feb-18 23:29N 33°55' E 131°11'0 0.0
2018-Feb-18 22:59N 33°55' E 131°11'0 0.0
2018-Feb-18 22:29N 33°55' E 131°11'0 0.0
2018-Feb-18 21:59N 33°55' E 131°11'0 0.0
2018-Feb-18 21:29N 33°55' E 131°11'0 0.0
2018-Feb-18 20:59N 33°55' E 131°11'0 0.1
2018-Feb-18 20:29N 33°55' E 131°11'0 0.0
2018-Feb-18 19:59N 33°55' E 131°11'0 0.0
2018-Feb-18 19:28N 33°55' E 131°11'0 0.1
2018-Feb-18 18:59N 33°55' E 131°11'0 0.0
2018-Feb-18 18:28N 33°55' E 131°11'0 0.0
2018-Feb-18 17:59N 33°55' E 131°11'0 0.0
2018-Feb-18 17:29N 33°55' E 131°11'0 0.0
2018-Feb-18 16:58N 33°55' E 131°11'0 0.0
2018-Feb-18 16:28N 33°55' E 131°11'0 0.0
2018-Feb-18 15:59N 33°55' E 131°11'0 0.0
2018-Feb-18 15:29N 33°55' E 131°11'0 0.0
2018-Feb-18 14:58N 33°55' E 131°11'0 0.0
2018-Feb-18 14:29N 33°55' E 131°11'0 0.0
2018-Feb-18 13:58N 33°55' E 131°11'0 0.1
2018-Feb-18 13:29N 33°55' E 131°11'0 0.1
2018-Feb-18 12:59N 33°55' E 131°11'0 0.0
2018-Feb-18 12:28N 33°55' E 131°11'0 0.1
2018-Feb-18 11:59N 33°55' E 131°11'0 0.1
2018-Feb-18 11:28N 33°55' E 131°11'0 0.0
2018-Feb-18 10:58N 33°55' E 131°11'0 0.0
2018-Feb-18 10:28N 33°55' E 131°11'0 0.0
2018-Feb-18 09:58N 33°55' E 131°11'0 0.1
2018-Feb-18 09:29N 33°55' E 131°11'0 0.1
2018-Feb-18 08:58N 33°55' E 131°11'0 0.1
2018-Feb-18 08:28N 33°55' E 131°11'0 0.0
2018-Feb-18 07:59N 33°55' E 131°11'0 0.0
2018-Feb-18 07:28N 33°55' E 131°11'0 0.0
2018-Feb-18 06:58N 33°55' E 131°11'0 0.0
2018-Feb-18 06:28N 33°55' E 131°11'0 0.0
2018-Feb-18 05:58N 33°55' E 131°11'0 0.0
2018-Feb-18 05:28N 33°55' E 131°11'2 4.5
2018-Feb-18 05:00N 33°53' E 131°12'611.9
2018-Feb-18 04:31N 33°51' E 131°19'612.2
2018-Feb-18 04:00N 33°50' E 131°27'612.3
2018-Feb-18 03:31N 33°49' E 131°34'612.3
2018-Feb-18 03:00N 33°48' E 131°41'612.4
2018-Feb-18 02:31N 33°47' E 131°48'612.7
2018-Feb-18 02:01N 33°46' E 131°56'612.2
2018-Feb-18 01:30N 33°46' E 132°03'711.7
2018-Feb-18 00:54N 33°51' E 132°10'612.1
2018-Feb-18 00:23N 33°57' E 132°09'510.9
2018-Feb-17 23:54N 34°00' E 132°14'512.7
2018-Feb-17 23:30N 34°05' E 132°16'611.7
2018-Feb-17 23:01N 34°11' E 132°17'3 6.9
2018-Feb-17 22:30N 34°14' E 132°14'0 0.0
2018-Feb-17 21:59N 34°14' E 132°14'0 0.0
2018-Feb-17 21:23N 34°14' E 132°14'0 0.0
2018-Feb-17 20:59N 34°14' E 132°14'0 0.0
2018-Feb-17 20:29N 34°14' E 132°14'0 0.0
2018-Feb-17 19:59N 34°14' E 132°14'0 0.0
2018-Feb-17 19:29N 34°14' E 132°14'0 0.0
2018-Feb-17 18:59N 34°14' E 132°14'0 0.0
2018-Feb-17 18:29N 34°14' E 132°14'0 0.0
2018-Feb-17 17:53N 34°14' E 132°14'0 0.0
2018-Feb-17 17:29N 34°14' E 132°14'0 0.0
2018-Feb-16 21:17N 34°14' E 132°14'0 0.0
2018-Feb-16 20:53N 34°14' E 132°14'0 0.0
2018-Feb-16 20:17N 34°14' E 132°14'0 0.0
2018-Feb-16 19:59N 34°14' E 132°14'0 0.0
2018-Feb-16 19:23N 34°14' E 132°14'0 0.0
2018-Feb-16 18:47N 34°14' E 132°14'0 0.0
2018-Feb-16 18:29N 34°14' E 132°14'0 0.0
2018-Feb-16 17:59N 34°14' E 132°14'0 0.0
2018-Feb-16 17:23N 34°14' E 132°14'0 0.0
2018-Feb-16 16:59N 34°14' E 132°14'0 0.0
2018-Feb-16 16:17N 34°14' E 132°14'0 0.0
2018-Feb-16 15:11N 34°14' E 132°14'0 0.0
2018-Feb-16 07:11N 34°14' E 132°14'0 0.0
2018-Feb-16 04:53N 34°14' E 132°14'1 1.5
2018-Feb-16 04:30N 34°14' E 132°14'0 0.0
2018-Feb-16 00:49N 34°14' E 132°14'0 0.0
2018-Feb-16 00:25N 34°14' E 132°14'1 1.5
2018-Feb-15 23:58N 34°14' E 132°14'0 0.0
2018-Feb-15 23:28N 34°14' E 132°14'0 0.0
2018-Feb-15 22:55N 34°14' E 132°14'0 0.0
2018-Feb-15 22:28N 34°14' E 132°14'0 0.0
2018-Feb-15 21:58N 34°14' E 132°14'0 0.0
2018-Feb-15 21:28N 34°14' E 132°14'0 0.0
2018-Feb-15 20:58N 34°14' E 132°14'0 0.1
2018-Feb-15 20:28N 34°14' E 132°14'0 0.1
2018-Feb-15 19:55N 34°14' E 132°14'0 0.0
2018-Feb-15 19:28N 34°14' E 132°14'0 0.0
2018-Feb-15 18:58N 34°14' E 132°14'0 0.0
2018-Feb-15 18:28N 34°14' E 132°14'0 0.0
2018-Feb-15 17:58N 34°14' E 132°14'0 0.0
2018-Feb-15 17:25N 34°14' E 132°14'0 0.0
2018-Feb-15 16:55N 34°14' E 132°14'0 0.0
2018-Feb-15 16:28N 34°14' E 132°14'0 0.0
2018-Feb-15 15:58N 34°14' E 132°14'0 0.0
2018-Feb-15 15:25N 34°14' E 132°14'0 0.0
2018-Feb-15 14:55N 34°14' E 132°14'0 0.1
2018-Feb-15 14:25N 34°14' E 132°14'0 0.0
2018-Feb-15 13:49N 34°14' E 132°14'0 0.0
2018-Feb-15 13:25N 34°14' E 132°14'0 0.1
2018-Feb-15 12:58N 34°14' E 132°14'0 0.0
2018-Feb-15 12:28N 34°14' E 132°14'0 0.0
2018-Feb-15 11:58N 34°14' E 132°14'0 0.0
2018-Feb-15 11:28N 34°14' E 132°14'0 0.0
2018-Feb-15 10:58N 34°14' E 132°14'0 0.0
2018-Feb-15 10:28N 34°14' E 132°14'0 0.1
2018-Feb-15 09:49N 34°14' E 132°14'0 0.0
2018-Feb-15 09:28N 34°14' E 132°14'0 0.0
2018-Feb-15 08:58N 34°14' E 132°14'0 0.1
2018-Feb-15 08:28N 34°14' E 132°14'0 0.0
2018-Feb-15 07:49N 34°14' E 132°14'0 0.1
2018-Feb-15 07:28N 34°14' E 132°14'0 0.0
2018-Feb-15 06:43N 34°14' E 132°14'0 0.0
2018-Feb-15 06:25N 34°14' E 132°14'0 0.1
2018-Feb-15 05:55N 34°14' E 132°14'0 0.0
2018-Feb-15 05:22N 34°14' E 132°14'0 0.0
2018-Feb-15 04:49N 34°14' E 132°14'0 0.0
2018-Feb-15 04:28N 34°14' E 132°14'0 0.0
2018-Feb-15 03:58N 34°14' E 132°14'0 0.1
2018-Feb-15 03:28N 34°14' E 132°14'0 0.0
2018-Feb-15 02:58N 34°14' E 132°14'0 0.0
2018-Feb-15 02:25N 34°14' E 132°14'0 0.0
2018-Feb-15 01:58N 34°14' E 132°14'0 0.0
2018-Feb-15 01:25N 34°14' E 132°14'0 0.0
2018-Feb-15 00:55N 34°14' E 132°14'0 0.0
2018-Feb-15 00:25N 34°14' E 132°14'0 0.1
2018-Feb-14 23:55N 34°14' E 132°14'0 0.1
2018-Feb-14 23:28N 34°14' E 132°14'0 0.0
2018-Feb-14 22:55N 34°14' E 132°14'0 0.0
2018-Feb-14 22:19N 34°14' E 132°14'0 0.0
2018-Feb-14 21:55N 34°14' E 132°14'0 0.1
2018-Feb-14 21:25N 34°14' E 132°14'0 0.1
2018-Feb-14 20:55N 34°14' E 132°14'0 0.1
2018-Feb-14 20:28N 34°14' E 132°14'0 0.0
2018-Feb-14 19:58N 34°14' E 132°14'0 0.0
2018-Feb-14 19:16N 34°14' E 132°14'0 0.0
2018-Feb-14 18:49N 34°14' E 132°14'0 0.0
2018-Feb-14 18:28N 34°14' E 132°14'0 0.0
2018-Feb-14 17:58N 34°14' E 132°14'0 0.0
2018-Feb-14 17:28N 34°14' E 132°14'0 0.0
2018-Feb-14 16:55N 34°14' E 132°14'0 0.0
2018-Feb-14 16:25N 34°14' E 132°14'0 0.0
2018-Feb-14 15:58N 34°14' E 132°14'0 0.0
2018-Feb-14 15:28N 34°14' E 132°14'0 0.2
2018-Feb-14 15:00N 34°14' E 132°14'510.3
2018-Feb-14 14:31N 34°10' E 132°17'611.3
2018-Feb-14 14:00N 34°04' E 132°16'2010.5
2018-Feb-14 12:06N 33°46' E 132°05'112.7
2018-Feb-14 12:00N 33°46' E 132°04'712.6
2018-Feb-14 11:25N 33°45' E 131°55'512.3
2018-Feb-14 11:01N 33°46' E 131°50'612.2
2018-Feb-14 10:30N 33°48' E 131°42'612.0
2018-Feb-14 10:00N 33°49' E 131°35'611.8
2018-Feb-14 09:30N 33°50' E 131°28'611.7
2018-Feb-14 09:00N 33°51' E 131°21'611.5
2018-Feb-14 08:31N 33°52' E 131°15'611.7
2018-Feb-14 08:00N 33°55' E 131°08'612.3
2018-Feb-14 07:31N 33°58' E 131°02'611.4
2018-Feb-14 07:00N 33°55' E 130°56'510.4
2018-Feb-14 06:30N 33°56' E 130°50'5 9.0
2018-Feb-14 06:00N 33°53' E 130°46'0 0.8
2018-Feb-14 05:28N 33°52' E 130°45'0 0.0
2018-Feb-14 04:58N 33°52' E 130°45'0 0.0
2018-Feb-14 04:28N 33°52' E 130°45'0 0.0
2018-Feb-14 03:55N 33°52' E 130°45'0 0.0
2018-Feb-14 03:28N 33°52' E 130°45'0 0.0
2018-Feb-14 02:58N 33°52' E 130°45'0 0.0
2018-Feb-14 02:25N 33°52' E 130°45'0 0.0
2018-Feb-14 01:58N 33°52' E 130°45'0 0.0
2018-Feb-14 01:28N 33°52' E 130°45'0 0.0
2018-Feb-14 00:58N 33°52' E 130°45'0 0.0
2018-Feb-14 00:28N 33°52' E 130°45'0 0.0
2018-Feb-13 23:58N 33°52' E 130°45'0 0.0
2018-Feb-13 23:28N 33°52' E 130°45'0 0.1
2018-Feb-13 22:58N 33°53' E 130°45'0 0.5
2018-Feb-13 22:29N 33°53' E 130°45'0 0.0
2018-Feb-13 21:59N 33°53' E 130°45'0 0.0
2018-Feb-13 21:29N 33°53' E 130°45'0 0.0
2018-Feb-13 20:59N 33°53' E 130°45'0 0.0
2018-Feb-13 20:29N 33°53' E 130°45'0 0.0
2018-Feb-13 19:59N 33°53' E 130°45'0 0.0
2018-Feb-13 19:29N 33°53' E 130°45'0 0.0
2018-Feb-13 18:59N 33°53' E 130°45'0 0.0
2018-Feb-13 18:29N 33°53' E 130°45'0 0.0
2018-Feb-13 17:59N 33°53' E 130°45'0 0.0
2018-Feb-13 17:29N 33°53' E 130°45'0 0.0
2018-Feb-13 16:59N 33°53' E 130°45'0 0.0
2018-Feb-13 16:26N 33°53' E 130°45'0 0.0
2018-Feb-13 15:59N 33°53' E 130°45'0 0.0
2018-Feb-13 15:29N 33°53' E 130°45'0 0.0
2018-Feb-13 14:59N 33°53' E 130°45'0 0.0
2018-Feb-13 14:29N 33°53' E 130°45'0 0.0
2018-Feb-13 13:59N 33°53' E 130°45'0 0.0
2018-Feb-13 13:29N 33°53' E 130°45'0 0.0
2018-Feb-13 12:59N 33°53' E 130°45'0 0.0
2018-Feb-13 12:26N 33°53' E 130°45'0 0.0
2018-Feb-13 11:59N 33°53' E 130°45'0 0.0
2018-Feb-13 11:29N 33°53' E 130°45'  
Track history (hours):
 
Tides and Currents Weather Stations Pressure Air Temp Water Temp Dewpoint Dewpoint Depression Visibility Wind Speed Wind Dir Waves Ship Positions

Senyomaru

Last reported at 2018-Feb-23 11:28 UTC. Time now 2018-Feb-23 12:43 UTC.
Position N 34°01' E 131°41'.

Length 69 m; draft 4 m.

Type: Tanker. MMSI: 431300188.

Date/timePositionNaut miles runAvg speedWind from/ knotsBaromVisibWave heightAir tempDewpointWater temp
2018-Feb-23 11:28N 34°01' E 131°41'0 0.0
2018-Feb-23 10:58N 34°01' E 131°41'0 0.0
2018-Feb-23 10:28N 34°02' E 131°41'0 0.0
2018-Feb-23 09:58N 34°01' E 131°41'0 0.0
2018-Feb-23 06:52N 34°02' E 131°41'2 6.3
2018-Feb-23 06:30N 34°00' E 131°39'712.5
2018-Feb-23 05:58N 33°57' E 131°32'612.5
2018-Feb-23 05:30N 33°55' E 131°25'612.4
2018-Feb-23 05:00N 33°52' E 131°19'510.1
2018-Feb-23 04:31N 33°54' E 131°13'4 6.0
2018-Feb-23 03:54N 33°57' E 131°15'0 0.0
2018-Feb-23 03:30N 33°57' E 131°15'0 0.0
2018-Feb-23 02:51N 33°57' E 131°15'0 0.0
2018-Feb-23 02:30N 33°57' E 131°15'0 0.0
2018-Feb-23 00:35N 33°57' E 131°15'0 0.0
2018-Feb-23 00:17N 33°57' E 131°15'0 0.0
2018-Feb-23 00:00N 33°57' E 131°15'0 0.0
2018-Feb-22 23:30N 33°57' E 131°15'0 0.0
2018-Feb-22 22:59N 33°57' E 131°15'1 2.0
2018-Feb-22 22:29N 33°56' E 131°14'3 6.6
2018-Feb-22 22:00N 33°54' E 131°11'4 8.0
2018-Feb-22 21:31N 33°57' E 131°09'1 2.3
2018-Feb-22 21:01N 33°58' E 131°10'0 0.0
2018-Feb-22 20:28N 33°58' E 131°10'0 0.0
2018-Feb-22 19:58N 33°58' E 131°10'0 0.0
2018-Feb-22 19:25N 33°58' E 131°10'0 0.0
2018-Feb-22 18:55N 33°58' E 131°10'0 0.0
2018-Feb-22 18:28N 33°58' E 131°10'0 0.0
2018-Feb-22 17:58N 33°58' E 131°10'0 0.0
2018-Feb-22 17:28N 33°58' E 131°10'0 0.0
2018-Feb-22 16:58N 33°58' E 131°10'0 0.0
2018-Feb-22 16:28N 33°58' E 131°10'0 0.0
2018-Feb-22 15:58N 33°58' E 131°10'0 0.0
2018-Feb-22 15:28N 33°58' E 131°10'0 0.0
2018-Feb-22 14:58N 33°58' E 131°10'0 0.0
2018-Feb-22 14:25N 33°58' E 131°10'0 0.0
2018-Feb-22 13:58N 33°58' E 131°10'0 0.0
2018-Feb-22 13:28N 33°58' E 131°10'0 0.0
2018-Feb-22 12:58N 33°58' E 131°10'0 0.0
2018-Feb-22 12:28N 33°58' E 131°10'0 0.0
2018-Feb-22 11:58N 33°58' E 131°10'0 0.0
2018-Feb-22 11:28N 33°58' E 131°10'0 0.0
2018-Feb-22 10:55N 33°58' E 131°10'0 0.0
2018-Feb-22 10:28N 33°58' E 131°10'0 0.0
2018-Feb-22 09:58N 33°58' E 131°10'0 0.0
2018-Feb-22 09:28N 33°58' E 131°10'0 0.0
2018-Feb-22 08:58N 33°58' E 131°10'0 0.0
2018-Feb-22 08:25N 33°58' E 131°10'0 0.0
2018-Feb-22 07:58N 33°58' E 131°10'0 0.0
2018-Feb-22 07:28N 33°58' E 131°10'0 0.0
2018-Feb-22 06:58N 33°58' E 131°10'0 0.0
2018-Feb-22 06:28N 33°58' E 131°10'0 0.0
2018-Feb-22 05:58N 33°58' E 131°10'0 0.0
2018-Feb-22 05:28N 33°58' E 131°10'0 0.0
2018-Feb-22 04:58N 33°58' E 131°10'0 0.0
2018-Feb-22 04:28N 33°58' E 131°10'0 0.0
2018-Feb-22 03:55N 33°58' E 131°10'0 0.0
2018-Feb-22 03:28N 33°58' E 131°10'0 0.0
2018-Feb-22 02:58N 33°58' E 131°10'0 0.0
2018-Feb-22 02:28N 33°58' E 131°10'0 0.0
2018-Feb-22 01:58N 33°58' E 131°10'0 0.0
2018-Feb-22 01:28N 33°58' E 131°10'0 0.0
2018-Feb-22 00:58N 33°58' E 131°10'0 0.0
2018-Feb-22 00:28N 33°58' E 131°10'0 0.0
2018-Feb-21 23:58N 33°58' E 131°10'0 0.0
2018-Feb-21 23:28N 33°58' E 131°10'0 0.0
2018-Feb-21 22:58N 33°58' E 131°10'1 2.2
2018-Feb-21 22:30N 33°58' E 131°09'2 4.5
2018-Feb-21 21:58N 33°56' E 131°07'0 0.0
2018-Feb-21 21:28N 33°56' E 131°07'0 0.0
2018-Feb-21 20:58N 33°56' E 131°07'0 0.0
2018-Feb-21 20:28N 33°56' E 131°07'0 0.0
2018-Feb-21 19:58N 33°56' E 131°07'0 0.0
2018-Feb-21 19:28N 33°56' E 131°07'0 0.0
2018-Feb-21 18:58N 33°56' E 131°07'0 0.0
2018-Feb-21 18:28N 33°56' E 131°07'0 0.1
2018-Feb-21 17:58N 33°56' E 131°07'0 0.0
2018-Feb-21 17:28N 33°56' E 131°07'0 0.1
2018-Feb-21 16:58N 33°56' E 131°07'0 0.0
2018-Feb-21 16:28N 33°56' E 131°07'0 0.0
2018-Feb-21 15:58N 33°56' E 131°07'0 0.0
2018-Feb-21 15:28N 33°56' E 131°07'0 0.0
2018-Feb-21 14:58N 33°56' E 131°07'0 0.0
2018-Feb-21 14:28N 33°56' E 131°07'0 0.1
2018-Feb-21 13:58N 33°56' E 131°07'0 0.0
2018-Feb-21 13:28N 33°56' E 131°07'0 0.1
2018-Feb-21 12:58N 33°56' E 131°07'0 0.0
2018-Feb-21 12:28N 33°56' E 131°07'0 0.0
2018-Feb-21 11:58N 33°56' E 131°07'2 3.9
2018-Feb-21 11:30N 33°55' E 131°09'612.9
2018-Feb-21 11:00N 33°51' E 131°15'611.8
2018-Feb-21 10:30N 33°49' E 131°21'611.7
2018-Feb-21 10:00N 33°46' E 131°27'612.2
2018-Feb-21 09:30N 33°43' E 131°34'611.9
2018-Feb-21 09:00N 33°41' E 131°41'611.6
2018-Feb-21 08:30N 33°37' E 131°45'1111.3
2018-Feb-21 07:34N 33°28' E 131°52'211.1
2018-Feb-21 07:24N 33°26' E 131°53'7 0.3
2018-Feb-20 09:10N 33°20' E 131°58'212.2
2018-Feb-20 09:00N 33°22' E 131°57'612.7
2018-Feb-20 08:30N 33°27' E 131°53'713.2
2018-Feb-20 08:00N 33°33' E 131°49'713.0
2018-Feb-20 07:30N 33°38' E 131°44'713.2
2018-Feb-20 07:00N 33°42' E 131°38'612.9
2018-Feb-20 06:30N 33°45' E 131°31'612.8
2018-Feb-20 06:00N 33°48' E 131°24'612.6
2018-Feb-20 05:30N 33°51' E 131°17'510.0
2018-Feb-20 05:01N 33°54' E 131°13'3 5.5
2018-Feb-20 04:28N 33°57' E 131°15'0 0.0
2018-Feb-20 03:50N 33°57' E 131°15'0 0.0
2018-Feb-20 01:50N 33°57' E 131°15'0 0.0
2018-Feb-20 01:29N 33°57' E 131°15'0 0.0
2018-Feb-20 00:59N 33°57' E 131°15'0 0.0
2018-Feb-20 00:26N 33°57' E 131°15'0 0.0
2018-Feb-19 23:50N 33°57' E 131°15'0 0.0
2018-Feb-19 23:29N 33°57' E 131°15'0 0.0
2018-Feb-19 23:00N 33°57' E 131°15'2 4.1
2018-Feb-19 22:30N 33°55' E 131°13'2 4.1
2018-Feb-19 21:59N 33°55' E 131°11'0 0.0
2018-Feb-19 21:20N 33°55' E 131°11'0 0.2
2018-Feb-19 20:59N 33°55' E 131°11'0 0.0
2018-Feb-19 20:29N 33°55' E 131°11'0 0.1
2018-Feb-19 19:59N 33°55' E 131°11'0 0.0
2018-Feb-19 19:29N 33°55' E 131°11'0 0.0
2018-Feb-19 18:59N 33°55' E 131°11'0 0.0
2018-Feb-19 18:29N 33°55' E 131°11'0 0.0
2018-Feb-19 17:59N 33°55' E 131°11'0 0.0
2018-Feb-19 17:29N 33°55' E 131°11'0 0.0
2018-Feb-19 16:56N 33°55' E 131°11'0 0.0
2018-Feb-19 16:29N 33°55' E 131°11'0 0.0
2018-Feb-19 15:59N 33°55' E 131°11'0 0.0
2018-Feb-19 15:29N 33°55' E 131°11'0 0.0
2018-Feb-19 14:59N 33°55' E 131°11'0 0.1
2018-Feb-19 14:29N 33°55' E 131°11'0 0.0
2018-Feb-19 13:59N 33°55' E 131°11'0 0.1
2018-Feb-19 13:29N 33°55' E 131°11'0 0.0
2018-Feb-19 12:59N 33°55' E 131°11'0 0.1
2018-Feb-19 12:29N 33°55' E 131°11'0 0.0
2018-Feb-19 11:59N 33°55' E 131°11'0 0.0
2018-Feb-19 11:29N 33°55' E 131°11'0 0.0
2018-Feb-19 10:59N 33°55' E 131°11'0 0.0
2018-Feb-19 10:29N 33°55' E 131°11'0 0.1
2018-Feb-19 09:59N 33°55' E 131°11'0 0.0
2018-Feb-19 09:29N 33°55' E 131°11'0 0.0
2018-Feb-19 08:59N 33°55' E 131°11'0 0.2
2018-Feb-19 08:23N 33°55' E 131°11'0 0.0
2018-Feb-19 07:59N 33°55' E 131°11'0 0.0
2018-Feb-19 07:29N 33°55' E 131°11'0 0.0
2018-Feb-19 06:59N 33°55' E 131°11'0 0.0
2018-Feb-19 06:29N 33°55' E 131°11'0 0.0
2018-Feb-19 05:56N 33°55' E 131°11'0 0.0
2018-Feb-19 05:29N 33°55' E 131°11'0 0.0
2018-Feb-19 04:59N 33°55' E 131°11'0 0.0
2018-Feb-19 04:29N 33°55' E 131°11'0 0.0
2018-Feb-19 03:59N 33°55' E 131°11'0 0.1
2018-Feb-19 03:29N 33°55' E 131°11'0 0.0
2018-Feb-19 02:59N 33°55' E 131°11'0 0.0
2018-Feb-19 02:29N 33°55' E 131°11'0 0.0
2018-Feb-19 01:59N 33°55' E 131°11'0 0.0
2018-Feb-19 01:29N 33°55' E 131°11'0 0.0
2018-Feb-19 00:59N 33°55' E 131°11'0 0.0
2018-Feb-19 00:29N 33°55' E 131°11'0 0.0
2018-Feb-18 23:59N 33°55' E 131°11'0 0.1
2018-Feb-18 23:29N 33°55' E 131°11'0 0.0
2018-Feb-18 22:59N 33°55' E 131°11'0 0.0
2018-Feb-18 22:29N 33°55' E 131°11'0 0.0
2018-Feb-18 21:59N 33°55' E 131°11'0 0.0
2018-Feb-18 21:29N 33°55' E 131°11'0 0.0
2018-Feb-18 20:59N 33°55' E 131°11'0 0.1
2018-Feb-18 20:29N 33°55' E 131°11'0 0.0
2018-Feb-18 19:59N 33°55' E 131°11'0 0.0
2018-Feb-18 19:28N 33°55' E 131°11'0 0.1
2018-Feb-18 18:59N 33°55' E 131°11'0 0.0
2018-Feb-18 18:28N 33°55' E 131°11'0 0.0
2018-Feb-18 17:59N 33°55' E 131°11'0 0.0
2018-Feb-18 17:29N 33°55' E 131°11'0 0.0
2018-Feb-18 16:58N 33°55' E 131°11'0 0.0
2018-Feb-18 16:28N 33°55' E 131°11'0 0.0
2018-Feb-18 15:59N 33°55' E 131°11'0 0.0
2018-Feb-18 15:29N 33°55' E 131°11'0 0.0
2018-Feb-18 14:58N 33°55' E 131°11'0 0.0
2018-Feb-18 14:29N 33°55' E 131°11'0 0.0
2018-Feb-18 13:58N 33°55' E 131°11'0 0.1
2018-Feb-18 13:29N 33°55' E 131°11'0 0.1
2018-Feb-18 12:59N 33°55' E 131°11'0 0.0
2018-Feb-18 12:28N 33°55' E 131°11'0 0.1
2018-Feb-18 11:59N 33°55' E 131°11'0 0.1
2018-Feb-18 11:28N 33°55' E 131°11'0 0.0
2018-Feb-18 10:58N 33°55' E 131°11'0 0.0
2018-Feb-18 10:28N 33°55' E 131°11'0 0.0
2018-Feb-18 09:58N 33°55' E 131°11'0 0.1
2018-Feb-18 09:29N 33°55' E 131°11'0 0.1
2018-Feb-18 08:58N 33°55' E 131°11'0 0.1
2018-Feb-18 08:28N 33°55' E 131°11'0 0.0
2018-Feb-18 07:59N 33°55' E 131°11'0 0.0
2018-Feb-18 07:28N 33°55' E 131°11'0 0.0
2018-Feb-18 06:58N 33°55' E 131°11'0 0.0
2018-Feb-18 06:28N 33°55' E 131°11'0 0.0
2018-Feb-18 05:58N 33°55' E 131°11'0 0.0
2018-Feb-18 05:28N 33°55' E 131°11'2 4.5
2018-Feb-18 05:00N 33°53' E 131°12'611.9
2018-Feb-18 04:31N 33°51' E 131°19'612.2
2018-Feb-18 04:00N 33°50' E 131°27'612.3
2018-Feb-18 03:31N 33°49' E 131°34'612.3
2018-Feb-18 03:00N 33°48' E 131°41'612.4
2018-Feb-18 02:31N 33°47' E 131°48'612.7
2018-Feb-18 02:01N 33°46' E 131°56'612.2
2018-Feb-18 01:30N 33°46' E 132°03'711.7
2018-Feb-18 00:54N 33°51' E 132°10'612.1
2018-Feb-18 00:23N 33°57' E 132°09'510.9
2018-Feb-17 23:54N 34°00' E 132°14'512.7
2018-Feb-17 23:30N 34°05' E 132°16'611.7
2018-Feb-17 23:01N 34°11' E 132°17'3 6.9
2018-Feb-17 22:30N 34°14' E 132°14'0 0.0
2018-Feb-17 21:59N 34°14' E 132°14'0 0.0
2018-Feb-17 21:23N 34°14' E 132°14'0 0.0
2018-Feb-17 20:59N 34°14' E 132°14'0 0.0
2018-Feb-17 20:29N 34°14' E 132°14'0 0.0
2018-Feb-17 19:59N 34°14' E 132°14'0 0.0
2018-Feb-17 19:29N 34°14' E 132°14'0 0.0
2018-Feb-17 18:59N 34°14' E 132°14'0 0.0
2018-Feb-17 18:29N 34°14' E 132°14'0 0.0
2018-Feb-17 17:53N 34°14' E 132°14'0 0.0
2018-Feb-17 17:29N 34°14' E 132°14'0 0.0
2018-Feb-16 21:17N 34°14' E 132°14'0 0.0
2018-Feb-16 20:53N 34°14' E 132°14'0 0.0
2018-Feb-16 20:17N 34°14' E 132°14'0 0.0
2018-Feb-16 19:59N 34°14' E 132°14'0 0.0
2018-Feb-16 19:23N 34°14' E 132°14'0 0.0
2018-Feb-16 18:47N 34°14' E 132°14'0 0.0
2018-Feb-16 18:29N 34°14' E 132°14'0 0.0
2018-Feb-16 17:59N 34°14' E 132°14'0 0.0
2018-Feb-16 17:23N 34°14' E 132°14'0 0.0
2018-Feb-16 16:59N 34°14' E 132°14'0 0.0
2018-Feb-16 16:17N 34°14' E 132°14'0 0.0
2018-Feb-16 15:11N 34°14' E 132°14'0 0.0
2018-Feb-16 07:11N 34°14' E 132°14'0 0.0
2018-Feb-16 04:53N 34°14' E 132°14'1 1.5
2018-Feb-16 04:30N 34°14' E 132°14'0 0.0
2018-Feb-16 00:49N 34°14' E 132°14'0 0.0
2018-Feb-16 00:25N 34°14' E 132°14'1 1.5
2018-Feb-15 23:58N 34°14' E 132°14'0 0.0
2018-Feb-15 23:28N 34°14' E 132°14'0 0.0
2018-Feb-15 22:55N 34°14' E 132°14'0 0.0
2018-Feb-15 22:28N 34°14' E 132°14'0 0.0
2018-Feb-15 21:58N 34°14' E 132°14'0 0.0
2018-Feb-15 21:28N 34°14' E 132°14'0 0.0
2018-Feb-15 20:58N 34°14' E 132°14'0 0.1
2018-Feb-15 20:28N 34°14' E 132°14'0 0.1
2018-Feb-15 19:55N 34°14' E 132°14'0 0.0
2018-Feb-15 19:28N 34°14' E 132°14'0 0.0
2018-Feb-15 18:58N 34°14' E 132°14'0 0.0
2018-Feb-15 18:28N 34°14' E 132°14'0 0.0
2018-Feb-15 17:58N 34°14' E 132°14'0 0.0
2018-Feb-15 17:25N 34°14' E 132°14'0 0.0
2018-Feb-15 16:55N 34°14' E 132°14'0 0.0
2018-Feb-15 16:28N 34°14' E 132°14'0 0.0
2018-Feb-15 15:58N 34°14' E 132°14'0 0.0
2018-Feb-15 15:25N 34°14' E 132°14'0 0.0
2018-Feb-15 14:55N 34°14' E 132°14'0 0.1
2018-Feb-15 14:25N 34°14' E 132°14'0 0.0
2018-Feb-15 13:49N 34°14' E 132°14'0 0.0
2018-Feb-15 13:25N 34°14' E 132°14'0 0.1
2018-Feb-15 12:58N 34°14' E 132°14'0 0.0
2018-Feb-15 12:28N 34°14' E 132°14'0 0.0
2018-Feb-15 11:58N 34°14' E 132°14'0 0.0
2018-Feb-15 11:28N 34°14' E 132°14'0 0.0
2018-Feb-15 10:58N 34°14' E 132°14'0 0.0
2018-Feb-15 10:28N 34°14' E 132°14'0 0.1
2018-Feb-15 09:49N 34°14' E 132°14'0 0.0
2018-Feb-15 09:28N 34°14' E 132°14'0 0.0
2018-Feb-15 08:58N 34°14' E 132°14'0 0.1
2018-Feb-15 08:28N 34°14' E 132°14'0 0.0
2018-Feb-15 07:49N 34°14' E 132°14'0 0.1
2018-Feb-15 07:28N 34°14' E 132°14'0 0.0
2018-Feb-15 06:43N 34°14' E 132°14'0 0.0
2018-Feb-15 06:25N 34°14' E 132°14'0 0.1
2018-Feb-15 05:55N 34°14' E 132°14'0 0.0
2018-Feb-15 05:22N 34°14' E 132°14'0 0.0
2018-Feb-15 04:49N 34°14' E 132°14'0 0.0
2018-Feb-15 04:28N 34°14' E 132°14'0 0.0
2018-Feb-15 03:58N 34°14' E 132°14'0 0.1
2018-Feb-15 03:28N 34°14' E 132°14'0 0.0
2018-Feb-15 02:58N 34°14' E 132°14'0 0.0
2018-Feb-15 02:25N 34°14' E 132°14'0 0.0
2018-Feb-15 01:58N 34°14' E 132°14'0 0.0
2018-Feb-15 01:25N 34°14' E 132°14'0 0.0
2018-Feb-15 00:55N 34°14' E 132°14'0 0.0
2018-Feb-15 00:25N 34°14' E 132°14'0 0.1
2018-Feb-14 23:55N 34°14' E 132°14'0 0.1
2018-Feb-14 23:28N 34°14' E 132°14'0 0.0
2018-Feb-14 22:55N 34°14' E 132°14'0 0.0
2018-Feb-14 22:19N 34°14' E 132°14'0 0.0
2018-Feb-14 21:55N 34°14' E 132°14'0 0.1
2018-Feb-14 21:25N 34°14' E 132°14'0 0.1
2018-Feb-14 20:55N 34°14' E 132°14'0 0.1
2018-Feb-14 20:28N 34°14' E 132°14'0 0.0
2018-Feb-14 19:58N 34°14' E 132°14'0 0.0
2018-Feb-14 19:16N 34°14' E 132°14'0 0.0
2018-Feb-14 18:49N 34°14' E 132°14'0 0.0
2018-Feb-14 18:28N 34°14' E 132°14'0 0.0
2018-Feb-14 17:58N 34°14' E 132°14'0 0.0
2018-Feb-14 17:28N 34°14' E 132°14'0 0.0
2018-Feb-14 16:55N 34°14' E 132°14'0 0.0
2018-Feb-14 16:25N 34°14' E 132°14'0 0.0
2018-Feb-14 15:58N 34°14' E 132°14'0 0.0
2018-Feb-14 15:28N 34°14' E 132°14'0 0.2
2018-Feb-14 15:00N 34°14' E 132°14'510.3
2018-Feb-14 14:31N 34°10' E 132°17'611.3
2018-Feb-14 14:00N 34°04' E 132°16'2010.5
2018-Feb-14 12:06N 33°46' E 132°05'112.7
2018-Feb-14 12:00N 33°46' E 132°04'712.6
2018-Feb-14 11:25N 33°45' E 131°55'512.3
2018-Feb-14 11:01N 33°46' E 131°50'612.2
2018-Feb-14 10:30N 33°48' E 131°42'612.0
2018-Feb-14 10:00N 33°49' E 131°35'611.8
2018-Feb-14 09:30N 33°50' E 131°28'611.7
2018-Feb-14 09:00N 33°51' E 131°21'611.5
2018-Feb-14 08:31N 33°52' E 131°15'611.7
2018-Feb-14 08:00N 33°55' E 131°08'612.3
2018-Feb-14 07:31N 33°58' E 131°02'611.4
2018-Feb-14 07:00N 33°55' E 130°56'510.4
2018-Feb-14 06:30N 33°56' E 130°50'5 9.0
2018-Feb-14 06:00N 33°53' E 130°46'0 0.8
2018-Feb-14 05:28N 33°52' E 130°45'0 0.0
2018-Feb-14 04:58N 33°52' E 130°45'0 0.0
2018-Feb-14 04:28N 33°52' E 130°45'0 0.0
2018-Feb-14 03:55N 33°52' E 130°45'0 0.0
2018-Feb-14 03:28N 33°52' E 130°45'0 0.0
2018-Feb-14 02:58N 33°52' E 130°45'0 0.0
2018-Feb-14 02:25N 33°52' E 130°45'0 0.0
2018-Feb-14 01:58N 33°52' E 130°45'0 0.0
2018-Feb-14 01:28N 33°52' E 130°45'0 0.0
2018-Feb-14 00:58N 33°52' E 130°45'0 0.0
2018-Feb-14 00:28N 33°52' E 130°45'0 0.0
2018-Feb-13 23:58N 33°52' E 130°45'0 0.0
2018-Feb-13 23:28N 33°52' E 130°45'0 0.1
2018-Feb-13 22:58N 33°53' E 130°45'0 0.5
2018-Feb-13 22:29N 33°53' E 130°45'0 0.0
2018-Feb-13 21:59N 33°53' E 130°45'0 0.0
2018-Feb-13 21:29N 33°53' E 130°45'0 0.0
2018-Feb-13 20:59N 33°53' E 130°45'0 0.0
2018-Feb-13 20:29N 33°53' E 130°45'0 0.0
2018-Feb-13 19:59N 33°53' E 130°45'0 0.0
2018-Feb-13 19:29N 33°53' E 130°45'0 0.0
2018-Feb-13 18:59N 33°53' E 130°45'0 0.0
2018-Feb-13 18:29N 33°53' E 130°45'0 0.0
2018-Feb-13 17:59N 33°53' E 130°45'0 0.0
2018-Feb-13 17:29N 33°53' E 130°45'0 0.0
2018-Feb-13 16:59N 33°53' E 130°45'0 0.0
2018-Feb-13 16:26N 33°53' E 130°45'0 0.0
2018-Feb-13 15:59N 33°53' E 130°45'0 0.0
2018-Feb-13 15:29N 33°53' E 130°45'0 0.0
2018-Feb-13 14:59N 33°53' E 130°45'0 0.0
2018-Feb-13 14:29N 33°53' E 130°45'0 0.0
2018-Feb-13 13:59N 33°53' E 130°45'0 0.0
2018-Feb-13 13:29N 33°53' E 130°45'0 0.0
2018-Feb-13 12:59N 33°53' E 130°45'0 0.0
2018-Feb-13 12:26N 33°53' E 130°45'0 0.0
2018-Feb-13 11:59N 33°53' E 130°45'0 0.0
2018-Feb-13 11:29N 33°53' E 130°45'  

Dump ship's entire track history